createdAt,value
2023-03-26T00:00:34.070Z,94985.19
2023-03-26T00:01:38.747Z,94978.78
2023-03-26T00:02:40.996Z,94983.09
2023-03-26T00:03:47.162Z,94987.47
2023-03-26T00:04:49.972Z,94980.81
2023-03-26T00:06:08.958Z,94978.31
2023-03-26T00:07:10.693Z,94973.63
2023-03-26T00:08:12.608Z,94973.41
2023-03-26T00:09:17.252Z,94976.84
2023-03-26T00:10:21.454Z,94975.00
2023-03-26T00:11:29.296Z,94978.50
2023-03-26T00:12:31.230Z,94975.69
2023-03-26T00:13:33.598Z,94987.78
2023-03-26T00:14:38.518Z,94979.66
2023-03-26T00:15:40.765Z,94979.22
2023-03-26T00:16:42.765Z,94975.38
2023-03-26T00:17:47.511Z,94974.44
2023-03-26T00:18:49.223Z,94980.47
2023-03-26T00:19:50.908Z,94974.72
2023-03-26T00:20:52.603Z,94963.94
2023-03-26T00:21:54.414Z,94960.75
2023-03-26T00:23:01.811Z,94965.91
2023-03-26T00:24:07.369Z,94968.88
2023-03-26T00:25:09.679Z,94971.63
2023-03-26T00:26:11.437Z,94962.09
2023-03-26T00:27:13.008Z,94960.00
2023-03-26T00:28:17.122Z,94954.47
2023-03-26T00:29:18.830Z,94960.88
2023-03-26T00:30:20.419Z,94966.25
2023-03-26T00:31:22.311Z,94964.84
2023-03-26T00:32:27.847Z,94969.22
2023-03-26T00:33:31.396Z,94971.63
2023-03-26T00:34:35.486Z,94963.09
2023-03-26T00:35:38.472Z,94968.69
2023-03-26T00:36:42.301Z,94970.06
2023-03-26T00:37:46.080Z,94972.91
2023-03-26T00:38:48.524Z,94976.69
2023-03-26T00:39:50.302Z,94971.44
2023-03-26T00:40:52.629Z,94973.50
2023-03-26T00:41:54.712Z,94967.44
2023-03-26T00:42:56.549Z,94963.44
2023-03-26T00:43:59.964Z,94964.34
2023-03-26T00:45:01.835Z,94967.53
2023-03-26T00:46:03.720Z,94972.78
2023-03-26T00:47:05.435Z,94981.31
2023-03-26T00:48:07.615Z,94974.69
2023-03-26T00:49:10.973Z,94967.63
2023-03-26T00:50:16.284Z,94947.63
2023-03-26T00:51:19.680Z,94950.91
2023-03-26T00:52:23.837Z,94961.25
2023-03-26T00:53:25.702Z,94956.16
2023-03-26T00:54:28.495Z,94949.81
2023-03-26T00:55:30.207Z,94944.78
2023-03-26T00:56:31.932Z,94936.84
2023-03-26T00:57:35.922Z,94941.19
2023-03-26T00:58:38.570Z,94934.06
2023-03-26T00:59:41.191Z,94930.72
2023-03-26T01:00:48.534Z,94933.78
2023-03-26T01:01:54.995Z,94945.41
2023-03-26T01:03:00.404Z,94951.63
2023-03-26T01:04:27.380Z,94940.34
2023-03-26T01:05:43.136Z,94942.28
2023-03-26T01:06:45.221Z,94949.69
2023-03-26T01:07:47.042Z,94947.00
2023-03-26T01:08:52.929Z,94938.75
2023-03-26T01:09:59.948Z,94943.00
2023-03-26T01:11:15.872Z,94934.19
2023-03-26T01:12:22.625Z,94940.47
2023-03-26T01:13:25.235Z,94928.97
2023-03-26T01:14:29.076Z,94935.44
2023-03-26T01:15:30.822Z,94928.50
2023-03-26T01:16:37.260Z,94925.06
2023-03-26T01:17:43.137Z,94923.72
2023-03-26T01:18:45.876Z,94923.28
2023-03-26T01:19:50.553Z,94924.41
2023-03-26T01:21:05.016Z,94919.31
2023-03-26T01:22:11.267Z,94913.03
2023-03-26T01:23:20.887Z,94909.84
2023-03-26T01:24:24.938Z,94913.47
2023-03-26T01:25:30.224Z,94900.91
2023-03-26T01:26:57.325Z,94900.56
2023-03-26T01:27:59.172Z,94895.31
2023-03-26T01:29:03.300Z,94890.66
2023-03-26T01:30:17.300Z,94887.69
2023-03-26T01:31:37.215Z,94889.63
2023-03-26T01:32:49.308Z,94874.72
2023-03-26T01:34:14.174Z,94869.66
2023-03-26T01:35:42.944Z,94866.47
2023-03-26T01:36:56.671Z,94859.06
2023-03-26T01:38:16.941Z,94844.13
2023-03-26T01:39:40.593Z,94843.06
2023-03-26T01:41:11.767Z,94843.44
2023-03-26T01:42:20.840Z,94837.06
2023-03-26T01:43:53.510Z,94836.16
2023-03-26T01:45:02.448Z,94837.50
2023-03-26T01:46:08.811Z,94838.31
2023-03-26T01:47:13.749Z,94837.28
2023-03-26T01:48:17.912Z,94832.03
2023-03-26T01:49:20.269Z,94833.19
2023-03-26T01:50:24.903Z,94827.50
2023-03-26T01:51:36.852Z,94835.94
2023-03-26T01:52:38.679Z,94830.44
2023-03-26T01:53:47.018Z,94836.38
2023-03-26T01:54:49.085Z,94834.47
2023-03-26T01:56:13.301Z,94831.47
2023-03-26T01:57:47.684Z,94826.22
2023-03-26T01:59:16.748Z,94822.69
2023-03-26T02:00:27.496Z,94822.69
2023-03-26T02:01:54.992Z,94818.34
2023-03-26T02:03:18.133Z,94820.16
2023-03-26T02:04:37.990Z,94816.16
2023-03-26T02:05:50.927Z,94805.56
2023-03-26T02:07:09.301Z,94808.19
2023-03-26T02:08:22.587Z,94808.97
2023-03-26T02:09:29.413Z,94803.53
2023-03-26T02:10:36.895Z,94804.31
2023-03-26T02:11:41.105Z,94799.88
2023-03-26T02:12:44.608Z,94800.78
2023-03-26T02:13:46.949Z,94799.31
2023-03-26T02:14:49.069Z,94800.34
2023-03-26T02:16:04.250Z,94797.13
2023-03-26T02:17:10.724Z,94803.53
2023-03-26T02:18:13.445Z,94793.38
2023-03-26T02:19:21.544Z,94802.25
2023-03-26T02:20:23.781Z,94794.19
2023-03-26T02:21:26.270Z,94803.25
2023-03-26T02:22:29.988Z,94795.63
2023-03-26T02:23:35.732Z,94788.13
2023-03-26T02:24:38.597Z,94781.41
2023-03-26T02:25:42.041Z,94774.09
2023-03-26T02:26:44.693Z,94779.81
2023-03-26T02:27:47.396Z,94777.19
2023-03-26T02:28:51.578Z,94772.75
2023-03-26T02:29:53.648Z,94770.69
2023-03-26T02:30:57.740Z,94768.66
2023-03-26T02:31:59.738Z,94775.03
2023-03-26T02:33:04.066Z,94767.75
2023-03-26T02:34:14.423Z,94758.84
2023-03-26T02:35:22.801Z,94754.72
2023-03-26T02:36:30.351Z,94749.13
2023-03-26T02:37:35.598Z,94750.06
2023-03-26T02:38:47.092Z,94739.44
2023-03-26T02:39:51.912Z,94735.22
2023-03-26T02:41:02.519Z,94725.31
2023-03-26T02:42:16.591Z,94710.03
2023-03-26T02:43:22.831Z,94705.91
2023-03-26T02:44:24.704Z,94714.56
2023-03-26T02:45:35.426Z,94714.34
2023-03-26T02:46:39.926Z,94710.72
2023-03-26T02:48:01.078Z,94705.00
2023-03-26T02:49:26.063Z,94707.72
2023-03-26T02:50:28.509Z,94695.19
2023-03-26T02:51:50.784Z,94698.72
2023-03-26T02:53:01.715Z,94686.38
2023-03-26T02:54:07.215Z,94695.97
2023-03-26T02:55:21.765Z,94688.44
2023-03-26T02:56:25.976Z,94683.97
2023-03-26T02:57:41.294Z,94701.00
2023-03-26T02:58:46.863Z,94694.94
2023-03-26T02:59:50.319Z,94686.84
2023-03-26T03:01:10.577Z,94693.13
2023-03-26T03:02:24.234Z,94678.97
2023-03-26T03:03:28.186Z,94682.38
2023-03-26T03:04:36.059Z,94680.78
2023-03-26T03:05:39.078Z,94684.44
2023-03-26T03:07:01.081Z,94675.22
2023-03-26T03:08:03.533Z,94680.00
2023-03-26T03:09:06.880Z,94681.59
2023-03-26T03:10:13.883Z,94684.44
2023-03-26T03:11:34.846Z,94677.03
2023-03-26T03:12:36.869Z,94673.84
2023-03-26T03:13:38.834Z,94668.03
2023-03-26T03:14:42.962Z,94661.75
2023-03-26T03:15:44.678Z,94672.25
2023-03-26T03:16:46.299Z,94667.81
2023-03-26T03:17:48.231Z,94670.66
2023-03-26T03:18:57.828Z,94664.72
2023-03-26T03:20:14.325Z,94676.00
2023-03-26T03:21:16.500Z,94668.69
2023-03-26T03:22:18.227Z,94667.91
2023-03-26T03:23:22.022Z,94666.06
2023-03-26T03:24:28.482Z,94662.66
2023-03-26T03:25:30.101Z,94659.81
2023-03-26T03:26:32.306Z,94662.31
2023-03-26T03:27:47.854Z,94657.06
2023-03-26T03:28:52.873Z,94653.41
2023-03-26T03:29:55.843Z,94653.66
2023-03-26T03:31:17.882Z,94646.94
2023-03-26T03:32:22.517Z,94645.13
2023-03-26T03:33:26.063Z,94644.31
2023-03-26T03:34:28.002Z,94644.31
2023-03-26T03:35:30.393Z,94646.47
2023-03-26T03:36:38.433Z,94639.63
2023-03-26T03:38:01.556Z,94649.34
2023-03-26T03:39:07.592Z,94647.28
2023-03-26T03:40:12.870Z,94643.16
2023-03-26T03:41:15.426Z,94644.53
2023-03-26T03:42:18.601Z,94634.38
2023-03-26T03:43:20.330Z,94640.44
2023-03-26T03:44:40.326Z,94640.66
2023-03-26T03:45:52.181Z,94639.63
2023-03-26T03:47:07.018Z,94635.97
2023-03-26T03:48:08.983Z,94639.72
2023-03-26T03:49:15.583Z,94635.75
2023-03-26T03:50:17.467Z,94630.34
2023-03-26T03:51:44.861Z,94630.59
2023-03-26T03:52:55.949Z,94630.59
2023-03-26T03:53:57.795Z,94627.16
2023-03-26T03:55:27.643Z,94627.16
2023-03-26T03:56:29.397Z,94628.28
2023-03-26T03:57:49.815Z,94632.50
2023-03-26T03:58:54.603Z,94624.63
2023-03-26T04:00:06.842Z,94621.69
2023-03-26T04:01:17.223Z,94606.16
2023-03-26T04:02:38.976Z,94606.41
2023-03-26T04:03:42.142Z,94608.00
2023-03-26T04:04:50.084Z,94604.56
2023-03-26T04:05:57.213Z,94602.41
2023-03-26T04:07:01.289Z,94601.84
2023-03-26T04:08:21.966Z,94600.59
2023-03-26T04:09:27.192Z,94600.91
2023-03-26T04:10:32.666Z,94594.06
2023-03-26T04:11:46.312Z,94595.09
2023-03-26T04:13:06.856Z,94595.69
2023-03-26T04:14:28.781Z,94588.38
2023-03-26T04:15:36.046Z,94583.69
2023-03-26T04:16:38.289Z,94582.44
2023-03-26T04:17:42.741Z,94580.09
2023-03-26T04:18:46.443Z,94578.44
2023-03-26T04:19:52.939Z,94573.75
2023-03-26T04:20:55.803Z,94571.13
2023-03-26T04:22:02.325Z,94572.03
2023-03-26T04:23:08.722Z,94576.03
2023-03-26T04:24:10.986Z,94583.91
2023-03-26T04:25:33.200Z,94581.72
2023-03-26T04:26:51.196Z,94584.81
2023-03-26T04:27:58.367Z,94588.94
2023-03-26T04:29:18.212Z,94591.00
2023-03-26T04:34:05.899Z,94591.88
2023-03-26T04:35:18.310Z,94585.16
2023-03-26T04:36:34.347Z,94587.78
2023-03-26T04:37:41.861Z,94587.78
2023-03-26T04:38:51.972Z,94587.31
2023-03-26T04:40:00.665Z,94590.97
2023-03-26T04:41:13.686Z,94586.97
2023-03-26T04:42:24.785Z,94579.91
2023-03-26T04:43:51.237Z,94573.09
2023-03-26T04:44:59.932Z,94568.88
2023-03-26T04:46:03.417Z,94570.25
2023-03-26T04:47:09.645Z,94567.63
2023-03-26T04:48:20.501Z,94562.13
2023-03-26T04:49:22.676Z,94571.13
2023-03-26T04:50:27.222Z,94563.59
2023-03-26T04:51:38.266Z,94561.53
2023-03-26T04:52:47.527Z,94554.34
2023-03-26T04:54:08.732Z,94560.97
2023-03-26T04:55:31.408Z,94562.31
2023-03-26T04:56:49.489Z,94556.38
2023-03-26T04:58:05.369Z,94553.50
2023-03-26T04:59:37.133Z,94554.06
2023-03-26T05:00:43.226Z,94557.25
2023-03-26T05:01:48.197Z,94546.28
2023-03-26T05:02:57.730Z,94544.47
2023-03-26T05:03:59.865Z,94533.16
2023-03-26T05:05:04.291Z,94530.78
2023-03-26T05:06:10.524Z,94526.31
2023-03-26T05:07:18.706Z,94525.28
2023-03-26T05:08:23.902Z,94508.53
2023-03-26T05:09:26.627Z,94495.97
2023-03-26T05:11:00.600Z,94488.34
2023-03-26T05:12:08.526Z,94490.16
2023-03-26T05:13:22.344Z,94502.25
2023-03-26T05:14:27.386Z,94500.44
2023-03-26T05:15:29.386Z,94505.13
2023-03-26T05:16:44.736Z,94498.03
2023-03-26T05:17:46.919Z,94503.81
2023-03-26T05:18:56.831Z,94507.81
2023-03-26T05:19:59.775Z,94505.97
2023-03-26T05:21:02.147Z,94503.13
2023-03-26T05:22:04.372Z,94496.59
2023-03-26T05:23:08.956Z,94494.44
2023-03-26T05:24:12.954Z,94500.72
2023-03-26T05:25:15.549Z,94496.28
2023-03-26T05:26:17.448Z,94496.28
2023-03-26T05:27:21.620Z,94495.00
2023-03-26T05:28:24.784Z,94496.59
2023-03-26T05:29:40.901Z,94499.22
2023-03-26T05:30:45.068Z,94501.38
2023-03-26T05:31:48.580Z,94498.66
2023-03-26T05:32:51.765Z,94507.09
2023-03-26T05:34:00.601Z,94496.03
2023-03-26T05:35:03.844Z,94492.38
2023-03-26T05:36:13.334Z,94475.31
2023-03-26T05:37:17.417Z,94477.03
2023-03-26T05:38:33.862Z,94481.97
2023-03-26T05:39:37.092Z,94479.56
2023-03-26T05:40:59.298Z,94478.44
2023-03-26T05:42:01.328Z,94475.03
2023-03-26T05:43:13.453Z,94475.88
2023-03-26T05:44:47.628Z,94495.13
2023-03-26T05:45:56.983Z,94491.25
2023-03-26T05:47:05.506Z,94493.72
2023-03-26T05:48:08.214Z,94490.88
2023-03-26T05:49:14.397Z,94482.28
2023-03-26T05:50:16.591Z,94487.06
2023-03-26T05:51:19.220Z,94490.72
2023-03-26T05:52:32.835Z,94493.13
2023-03-26T05:54:06.877Z,94499.13
2023-03-26T05:55:14.309Z,94495.00
2023-03-26T05:56:34.371Z,94499.00
2023-03-26T05:58:02.813Z,94497.25
2023-03-26T05:59:24.270Z,94504.13
2023-03-26T06:00:48.698Z,94519.09
2023-03-26T06:02:02.814Z,94514.72
2023-03-26T06:03:25.393Z,94529.03
2023-03-26T06:04:42.519Z,94532.69
2023-03-26T06:06:20.472Z,94538.03
2023-03-26T06:07:31.213Z,94527.44
2023-03-26T06:08:48.993Z,94533.41
2023-03-26T06:10:04.254Z,94512.19
2023-03-26T06:11:08.122Z,94521.06
2023-03-26T06:12:12.814Z,94518.84
2023-03-26T06:13:16.887Z,94514.63
2023-03-26T06:14:20.817Z,94500.47
2023-03-26T06:15:41.698Z,94503.56
2023-03-26T06:17:16.063Z,94493.06
2023-03-26T06:18:44.312Z,94493.72
2023-03-26T06:20:01.081Z,94484.81
2023-03-26T06:21:15.477Z,94484.34
2023-03-26T06:22:43.625Z,94488.16
2023-03-26T06:23:53.311Z,94471.94
2023-03-26T06:25:13.315Z,94470.69
2023-03-26T06:26:44.347Z,94479.22
2023-03-26T06:27:48.618Z,94473.97
2023-03-26T06:29:11.226Z,94479.03
2023-03-26T06:30:21.623Z,94475.81
2023-03-26T06:31:40.808Z,94462.25
2023-03-26T06:32:50.443Z,94461.19
2023-03-26T06:33:57.852Z,94465.50
2023-03-26T06:34:59.827Z,94455.00
2023-03-26T06:36:01.512Z,94447.97
2023-03-26T06:37:03.465Z,94453.63
2023-03-26T06:38:07.947Z,94454.44
2023-03-26T06:39:10.642Z,94451.81
2023-03-26T06:40:19.231Z,94455.00
2023-03-26T06:41:50.378Z,94448.47
2023-03-26T06:43:11.089Z,94440.19
2023-03-26T06:44:31.750Z,94431.84
2023-03-26T06:45:52.556Z,94429.69
2023-03-26T06:47:19.942Z,94439.16
2023-03-26T06:48:24.526Z,94447.34
2023-03-26T06:49:45.429Z,94457.06
2023-03-26T06:50:55.114Z,94460.94
2023-03-26T06:52:16.286Z,94474.88
2023-03-26T06:53:40.949Z,94475.09
2023-03-26T06:54:55.326Z,94489.59
2023-03-26T06:56:20.186Z,94497.94
2023-03-26T06:57:38.629Z,94475.81
2023-03-26T06:58:58.711Z,94458.13
2023-03-26T07:00:21.375Z,94461.47
2023-03-26T07:01:41.699Z,94468.06
2023-03-26T07:03:04.288Z,94473.06
2023-03-26T07:04:24.430Z,94487.88
2023-03-26T07:05:44.371Z,94483.00
2023-03-26T07:07:05.606Z,94476.16
2023-03-26T07:08:28.008Z,94478.22
2023-03-26T07:10:08.490Z,94474.97
2023-03-26T07:11:24.590Z,94477.59
2023-03-26T07:12:48.762Z,94462.97
2023-03-26T07:14:10.738Z,94460.34
2023-03-26T07:15:29.966Z,94447.47
2023-03-26T07:16:51.538Z,94446.19
2023-03-26T07:18:07.188Z,94450.09
2023-03-26T07:19:11.030Z,94466.69
2023-03-26T07:20:15.012Z,94471.25
2023-03-26T07:21:17.774Z,94458.47
2023-03-26T07:22:22.585Z,94458.47
2023-03-26T07:23:48.710Z,94459.50
2023-03-26T07:25:09.966Z,94445.34
2023-03-26T07:26:55.565Z,94436.81
2023-03-26T07:28:14.110Z,94447.69
2023-03-26T07:29:47.452Z,94467.66
2023-03-26T07:31:34.901Z,94447.22
2023-03-26T07:33:06.542Z,94448.81
2023-03-26T07:34:50.538Z,94435.44
2023-03-26T07:36:26.160Z,94431.09
2023-03-26T07:37:52.279Z,94421.69
2023-03-26T07:39:11.669Z,94434.75
2023-03-26T07:41:07.073Z,94419.00
2023-03-26T07:42:43.551Z,94400.28
2023-03-26T07:44:06.798Z,94405.97
2023-03-26T07:45:45.246Z,94407.28
2023-03-26T07:47:43.060Z,94436.16
2023-03-26T07:48:51.916Z,94423.75
2023-03-26T07:50:18.995Z,94417.78
2023-03-26T07:51:44.160Z,94414.88
2023-03-26T07:52:52.908Z,94419.50
2023-03-26T07:54:23.803Z,94427.22
2023-03-26T07:55:56.425Z,94423.50
2023-03-26T07:57:44.406Z,94414.41
2023-03-26T07:59:30.094Z,94409.56
2023-03-26T08:00:45.401Z,94405.34
2023-03-26T08:01:57.426Z,94400.16
2023-03-26T08:03:38.206Z,94415.34
2023-03-26T08:05:19.761Z,94416.25
2023-03-26T08:06:53.109Z,94413.91
2023-03-26T08:08:45.779Z,94421.25
2023-03-26T08:10:12.135Z,94434.38
2023-03-26T08:12:06.699Z,94434.22
2023-03-26T08:13:33.111Z,94446.38
2023-03-26T08:14:47.096Z,94442.84
2023-03-26T08:16:12.853Z,94437.75
2023-03-26T08:17:22.531Z,94430.72
2023-03-26T08:18:51.927Z,94453.81
2023-03-26T08:20:07.613Z,94427.34
2023-03-26T08:21:17.207Z,94419.53
2023-03-26T08:22:27.315Z,94429.94
2023-03-26T08:23:50.387Z,94423.97
2023-03-26T08:25:20.215Z,94427.91
2023-03-26T08:26:27.678Z,94421.38
2023-03-26T08:27:40.227Z,94407.97
2023-03-26T08:28:57.300Z,94408.59
2023-03-26T08:30:03.678Z,94408.28
2023-03-26T08:31:05.949Z,94403.69
2023-03-26T08:32:16.424Z,94401.19
2023-03-26T08:33:20.874Z,94396.91
2023-03-26T08:34:22.522Z,94381.72
2023-03-26T08:35:25.930Z,94384.94
2023-03-26T08:36:30.202Z,94388.44
2023-03-26T08:37:31.945Z,94390.09
2023-03-26T08:38:36.077Z,94401.06
2023-03-26T08:39:39.893Z,94405.31
2023-03-26T08:40:50.496Z,94410.94
2023-03-26T08:42:10.864Z,94411.19
2023-03-26T08:43:22.076Z,94403.38
2023-03-26T08:44:45.304Z,94402.28
2023-03-26T08:46:21.726Z,94388.72
2023-03-26T08:47:59.170Z,94378.41
2023-03-26T08:49:12.828Z,94381.66
2023-03-26T08:50:31.056Z,94386.81
2023-03-26T08:51:50.792Z,94390.22
2023-03-26T08:53:15.497Z,94393.25
2023-03-26T08:54:48.614Z,94389.72
2023-03-26T08:56:05.421Z,94400.88
2023-03-26T08:57:28.991Z,94413.16
2023-03-26T08:58:49.456Z,94425.38
2023-03-26T08:59:57.384Z,94434.44
2023-03-26T09:01:29.726Z,94442.66
2023-03-26T09:03:00.707Z,94434.03
2023-03-26T09:04:46.438Z,94439.16
2023-03-26T09:06:01.675Z,94444.63
2023-03-26T09:07:36.489Z,94443.56
2023-03-26T09:08:38.118Z,94439.47
2023-03-26T09:10:33.450Z,94444.72
2023-03-26T09:12:01.838Z,94448.50
2023-03-26T09:13:34.015Z,94431.47
2023-03-26T09:15:01.235Z,94429.38
2023-03-26T09:16:30.436Z,94440.25
2023-03-26T09:17:43.704Z,94420.75
2023-03-26T09:19:16.089Z,94426.31
2023-03-26T09:20:26.390Z,94443.50
2023-03-26T09:21:53.122Z,94459.91
2023-03-26T09:23:33.487Z,94448.81
2023-03-26T09:25:11.396Z,94444.84
2023-03-26T09:26:30.022Z,94444.59
2023-03-26T09:28:04.089Z,94457.00
2023-03-26T09:29:38.796Z,94453.06
2023-03-26T09:31:23.865Z,94444.84
2023-03-26T09:32:44.065Z,94448.81
2023-03-26T09:33:52.223Z,94454.09
2023-03-26T09:35:12.632Z,94461.50
2023-03-26T09:36:32.654Z,94456.22
2023-03-26T09:37:57.186Z,94458.31
2023-03-26T09:39:29.413Z,94455.16
2023-03-26T09:40:37.084Z,94450.91
2023-03-26T09:42:04.974Z,94446.16
2023-03-26T09:43:37.698Z,94459.88
2023-03-26T09:44:39.298Z,94446.91
2023-03-26T09:46:00.156Z,94456.19
2023-03-26T09:47:22.048Z,94444.28
2023-03-26T09:48:48.447Z,94458.81
2023-03-26T09:50:32.096Z,94448.25
2023-03-26T09:51:36.841Z,94446.63
2023-03-26T09:53:14.813Z,94455.63
2023-03-26T09:54:29.606Z,94442.88
2023-03-26T09:56:13.143Z,94443.94
2023-03-26T09:57:58.432Z,94455.34
2023-03-26T09:59:11.539Z,94445.03
2023-03-26T10:00:41.696Z,94437.66
2023-03-26T10:02:01.682Z,94450.84
2023-03-26T10:03:18.648Z,94434.44
2023-03-26T10:04:45.291Z,94436.00
2023-03-26T10:06:01.082Z,94439.19
2023-03-26T10:07:52.881Z,94440.50
2023-03-26T10:09:01.693Z,94447.66
2023-03-26T10:10:12.125Z,94441.03
2023-03-26T10:11:36.196Z,94446.34
2023-03-26T10:12:48.877Z,94445.53
2023-03-26T10:14:00.481Z,94432.31
2023-03-26T10:15:30.300Z,94433.34
2023-03-26T10:17:28.345Z,94438.38
2023-03-26T10:18:51.375Z,94425.34
2023-03-26T10:20:25.750Z,94420.66
2023-03-26T10:21:48.854Z,94432.53
2023-03-26T10:22:56.169Z,94428.53
2023-03-26T10:24:03.609Z,94426.94
2023-03-26T10:25:38.739Z,94425.94
2023-03-26T10:27:22.080Z,94429.56
2023-03-26T10:29:00.133Z,94435.44
2023-03-26T10:30:17.375Z,94429.91
2023-03-26T10:31:36.892Z,94424.28
2023-03-26T10:32:49.052Z,94428.50
2023-03-26T10:34:07.433Z,94430.09
2023-03-26T10:35:50.445Z,94425.06
2023-03-26T10:37:07.943Z,94423.72
2023-03-26T10:38:35.311Z,94426.25
2023-03-26T10:39:49.760Z,94428.63
2023-03-26T10:41:05.099Z,94427.75
2023-03-26T10:42:12.065Z,94434.59
2023-03-26T10:43:29.013Z,94428.56
2023-03-26T10:44:47.825Z,94436.69
2023-03-26T10:45:58.393Z,94428.72
2023-03-26T10:47:18.413Z,94425.50
2023-03-26T10:48:27.201Z,94428.66
2023-03-26T10:49:40.825Z,94425.41
2023-03-26T10:50:48.269Z,94428.78
2023-03-26T10:51:58.311Z,94424.31
2023-03-26T10:53:11.945Z,94424.31
2023-03-26T10:54:42.930Z,94430.66
2023-03-26T10:55:52.273Z,94438.66
2023-03-26T10:56:56.050Z,94443.38
2023-03-26T10:58:10.196Z,94445.53
2023-03-26T10:59:13.990Z,94466.78
2023-03-26T11:00:26.806Z,94463.06
2023-03-26T11:01:34.593Z,94473.19
2023-03-26T11:02:46.752Z,94488.53
2023-03-26T11:03:54.922Z,94486.06
2023-03-26T11:05:17.765Z,94492.66
2023-03-26T11:06:38.719Z,94493.44
2023-03-26T11:07:56.153Z,94479.22
2023-03-26T11:09:42.439Z,94470.78
2023-03-26T11:10:56.367Z,94493.34
2023-03-26T11:12:26.330Z,94497.13
2023-03-26T11:13:43.566Z,94513.81
2023-03-26T11:15:17.834Z,94496.38
2023-03-26T11:16:30.381Z,94509.88
2023-03-26T11:17:53.593Z,94500.63
2023-03-26T11:19:05.727Z,94498.50
2023-03-26T11:20:10.860Z,94495.25
2023-03-26T11:21:21.991Z,94499.75
2023-03-26T11:22:32.130Z,94506.31
2023-03-26T11:24:04.895Z,94509.72
2023-03-26T11:25:30.676Z,94507.06
2023-03-26T11:26:56.163Z,94522.56
2023-03-26T11:28:09.376Z,94522.88
2023-03-26T11:29:31.619Z,94521.09
2023-03-26T11:30:47.244Z,94521.19
2023-03-26T11:32:10.287Z,94518.09
2023-03-26T11:33:26.594Z,94519.78
2023-03-26T11:34:44.241Z,94513.72
2023-03-26T11:35:48.721Z,94514.56
2023-03-26T11:36:54.453Z,94531.75
2023-03-26T11:37:59.103Z,94523.88
2023-03-26T11:39:04.727Z,94517.88
2023-03-26T11:40:21.490Z,94508.91
2023-03-26T11:41:27.129Z,94512.09
2023-03-26T11:42:35.821Z,94512.91
2023-03-26T11:43:37.520Z,94504.19
2023-03-26T11:44:41.489Z,94504.72
2023-03-26T11:45:46.551Z,94507.97
2023-03-26T11:46:52.498Z,94515.91
2023-03-26T11:48:19.249Z,94506.41
2023-03-26T11:49:22.826Z,94511.69
2023-03-26T11:50:30.535Z,94516.19
2023-03-26T11:51:38.353Z,94505.91
2023-03-26T11:52:40.037Z,94509.59
2023-03-26T11:53:47.086Z,94516.97
2023-03-26T11:54:50.672Z,94498.22
2023-03-26T11:56:08.171Z,94496.28
2023-03-26T11:57:18.250Z,94478.34
2023-03-26T11:58:31.268Z,94480.97
2023-03-26T11:59:55.521Z,94466.72
2023-03-26T12:00:59.133Z,94475.44
2023-03-26T12:02:09.772Z,94470.41
2023-03-26T12:03:15.990Z,94475.44
2023-03-26T12:04:42.285Z,94469.34
2023-03-26T12:05:57.985Z,94469.88
2023-03-26T12:07:45.796Z,94460.91
2023-03-26T12:08:47.668Z,94456.44
2023-03-26T12:10:17.758Z,94457.78
2023-03-26T12:11:32.639Z,94450.94
2023-03-26T12:12:39.470Z,94448.81
2023-03-26T12:13:44.786Z,94438.78
2023-03-26T12:14:47.239Z,94450.41
2023-03-26T12:15:49.635Z,94447.78
2023-03-26T12:17:14.338Z,94443.53
2023-03-26T12:18:27.629Z,94449.09
2023-03-26T12:19:38.084Z,94443.53
2023-03-26T12:20:45.065Z,94440.88
2023-03-26T12:21:50.204Z,94438.78
2023-03-26T12:22:53.638Z,94439.56
2023-03-26T12:24:01.175Z,94438.50
2023-03-26T12:25:09.331Z,94440.59
2023-03-26T12:26:15.981Z,94436.09
2023-03-26T12:27:20.432Z,94428.41
2023-03-26T12:28:32.726Z,94426.81
2023-03-26T12:29:36.786Z,94411.25
2023-03-26T12:30:40.510Z,94410.19
2023-03-26T12:31:45.927Z,94418.41
2023-03-26T12:32:49.284Z,94409.13
2023-03-26T12:34:13.416Z,94420.81
2023-03-26T12:35:21.106Z,94408.91
2023-03-26T12:36:27.926Z,94400.16
2023-03-26T12:37:38.871Z,94397.78
2023-03-26T12:38:42.529Z,94399.31
2023-03-26T12:40:09.944Z,94397.44
2023-03-26T12:44:45.118Z,94399.56
2023-03-26T12:44:47.301Z,94393.28
2023-03-26T12:44:48.504Z,94380.53
2023-03-26T12:46:58.885Z,94366.44
2023-03-26T12:47:57.090Z,94369.34
2023-03-26T12:48:39.871Z,94378.09
2023-03-26T12:49:42.121Z,94375.44
2023-03-26T12:51:08.920Z,94378.91
2023-03-26T12:52:19.780Z,94370.69
2023-03-26T12:53:24.025Z,94369.03
2023-03-26T12:54:25.919Z,94374.31
2023-03-26T12:55:39.424Z,94365.59
2023-03-26T12:57:11.353Z,94355.56
2023-03-26T12:58:54.968Z,94353.09
2023-03-26T13:00:20.125Z,94340.59
2023-03-26T13:01:45.332Z,94344.34
2023-03-26T13:03:00.133Z,94326.88
2023-03-26T13:04:20.054Z,94335.44
2023-03-26T13:05:50.720Z,94335.69
2023-03-26T13:07:00.082Z,94338.41
2023-03-26T13:08:38.211Z,94334.44
2023-03-26T13:09:49.625Z,94331.75
2023-03-26T13:11:11.557Z,94334.16
2023-03-26T13:12:40.462Z,94338.16
2023-03-26T13:14:01.950Z,94326.84
2023-03-26T13:15:06.795Z,94324.16
2023-03-26T13:16:38.290Z,94321.28
2023-03-26T13:17:54.529Z,94314.41
2023-03-26T13:19:18.603Z,94324.78
2023-03-26T13:20:30.126Z,94323.72
2023-03-26T13:21:31.773Z,94338.06
2023-03-26T13:22:50.973Z,94336.84
2023-03-26T13:24:25.342Z,94356.66
2023-03-26T13:25:45.762Z,94356.94
2023-03-26T13:26:59.556Z,94359.34
2023-03-26T13:28:10.138Z,94371.34
2023-03-26T13:29:29.625Z,94370.56
2023-03-26T13:30:40.219Z,94377.75
2023-03-26T13:32:05.254Z,94394.94
2023-03-26T13:33:16.037Z,94395.41
2023-03-26T13:34:46.604Z,94408.34
2023-03-26T13:35:51.248Z,94401.19
2023-03-26T13:37:12.796Z,94405.63
2023-03-26T13:38:20.313Z,94411.09
2023-03-26T13:39:27.377Z,94414.72
2023-03-26T13:40:29.098Z,94416.44
2023-03-26T13:41:48.544Z,94421.31
2023-03-26T13:43:05.145Z,94408.75
2023-03-26T13:44:18.668Z,94413.13
2023-03-26T13:45:45.825Z,94419.34
2023-03-26T13:46:53.031Z,94449.25
2023-03-26T13:47:58.917Z,94458.78
2023-03-26T13:49:09.404Z,94496.19
2023-03-26T13:50:28.244Z,94517.88
2023-03-26T13:51:50.329Z,94537.59
2023-03-26T13:52:59.399Z,94534.00
2023-03-26T13:54:10.955Z,94599.88
2023-03-26T13:55:12.651Z,94545.66
2023-03-26T13:56:16.872Z,94537.19
2023-03-26T13:57:29.465Z,94548.34
2023-03-26T13:58:50.299Z,94574.63
2023-03-26T14:00:06.682Z,94570.91
2023-03-26T14:01:18.011Z,94544.41
2023-03-26T14:02:42.433Z,94476.69
2023-03-26T14:03:56.284Z,94478.28
2023-03-26T14:05:06.677Z,94484.97
2023-03-26T14:06:17.008Z,94483.72
2023-03-26T14:07:31.184Z,94482.25
2023-03-26T14:08:39.468Z,94489.81
2023-03-26T14:09:44.188Z,94475.69
2023-03-26T14:11:12.763Z,94471.09
2023-03-26T14:12:39.657Z,94483.03
2023-03-26T14:13:49.769Z,94489.09
2023-03-26T14:15:07.612Z,94487.25
2023-03-26T14:16:21.589Z,94481.88
2023-03-26T14:17:39.181Z,94481.16
2023-03-26T14:18:46.653Z,94475.19
2023-03-26T14:20:10.596Z,94459.16
2023-03-26T14:21:50.069Z,94464.78
2023-03-26T14:22:57.526Z,94447.84
2023-03-26T14:24:11.343Z,94448.72
2023-03-26T14:25:52.762Z,94439.81
2023-03-26T14:27:18.595Z,94439.06
2023-03-26T14:28:48.127Z,94437.75
2023-03-26T14:29:56.825Z,94436.44
2023-03-26T14:31:14.248Z,94434.56
2023-03-26T14:32:26.113Z,94427.28
2023-03-26T14:33:54.667Z,94430.97
2023-03-26T14:35:02.337Z,94433.81